createdAt,value
2022-11-08T00:02:42.391Z,9.01
2022-11-08T00:07:03.171Z,8.92
2022-11-08T00:11:23.351Z,8.79
2022-11-08T00:15:24.933Z,8.76
2022-11-08T00:19:27.044Z,8.74
2022-11-08T00:23:28.393Z,8.75
2022-11-08T00:27:29.741Z,8.69
2022-11-08T00:31:31.405Z,8.66
2022-11-08T00:35:32.724Z,8.64
2022-11-08T00:39:34.235Z,8.60
2022-11-08T00:43:35.604Z,8.55
2022-11-08T00:47:36.871Z,8.48
2022-11-08T00:51:38.237Z,8.45
2022-11-08T00:55:39.879Z,8.42
2022-11-08T00:59:41.221Z,8.34
2022-11-08T01:03:42.680Z,8.30
2022-11-08T01:07:44.039Z,8.25
2022-11-08T01:11:46.635Z,8.18
2022-11-08T01:15:48.651Z,8.12
2022-11-08T01:19:49.970Z,8.07
2022-11-08T01:23:51.612Z,7.99
2022-11-08T01:27:52.885Z,7.90
2022-11-08T01:31:54.210Z,7.76
2022-11-08T01:35:55.849Z,7.61
2022-11-08T01:39:57.192Z,7.56
2022-11-08T01:43:59.131Z,7.43
2022-11-08T01:48:00.733Z,7.37
2022-11-08T01:52:14.329Z,7.31
2022-11-08T01:56:15.863Z,7.14
2022-11-08T02:00:17.843Z,7.03
2022-11-08T02:04:19.575Z,6.98
2022-11-08T02:08:30.316Z,6.92
2022-11-08T02:12:32.099Z,6.90
2022-11-08T02:16:33.419Z,6.89
2022-11-08T02:20:35.211Z,6.82
2022-11-08T02:24:36.710Z,6.74
2022-11-08T02:28:42.449Z,6.70
2022-11-08T02:32:43.791Z,6.71
2022-11-08T02:36:47.473Z,6.64
2022-11-08T02:40:50.424Z,6.60
2022-11-08T02:44:51.710Z,6.49
2022-11-08T02:48:53.168Z,6.48
2022-11-08T02:52:54.476Z,6.46
2022-11-08T02:56:55.768Z,6.41
2022-11-08T03:00:57.491Z,6.32
2022-11-08T03:04:58.811Z,6.28
2022-11-08T03:09:00.205Z,6.20
2022-11-08T03:13:03.538Z,6.12
2022-11-08T03:17:04.999Z,6.07
2022-11-08T03:21:06.285Z,5.96
2022-11-08T03:25:07.744Z,5.92
2022-11-08T03:29:09.124Z,5.82
2022-11-08T03:33:10.616Z,5.73
2022-11-08T03:37:11.959Z,5.67
2022-11-08T03:41:13.259Z,5.62
2022-11-08T03:45:15.178Z,5.64
2022-11-08T03:49:16.540Z,5.57
2022-11-08T03:53:17.808Z,5.51
2022-11-08T03:57:19.090Z,5.46
2022-11-08T04:01:20.403Z,5.43
2022-11-08T04:05:22.248Z,5.43
2022-11-08T04:09:23.496Z,5.34
2022-11-08T04:13:43.864Z,5.32
2022-11-08T04:18:05.495Z,5.29
2022-11-08T04:22:07.706Z,5.32
2022-11-08T04:26:11.544Z,5.40
2022-11-08T04:30:12.906Z,5.43
2022-11-08T04:34:14.199Z,5.45
2022-11-08T04:38:16.057Z,5.40
2022-11-08T04:42:17.589Z,5.37
2022-11-08T04:46:20.144Z,5.26
2022-11-08T04:50:21.623Z,5.22
2022-11-08T04:54:23.015Z,5.21
2022-11-08T04:58:24.239Z,5.22
2022-11-08T05:02:27.428Z,5.26
2022-11-08T05:06:30.199Z,5.30
2022-11-08T05:10:31.664Z,5.38
2022-11-08T05:14:32.982Z,5.40
2022-11-08T05:18:34.851Z,5.53
2022-11-08T05:22:54.955Z,5.61
2022-11-08T05:26:56.672Z,5.73
2022-11-08T05:30:58.283Z,5.83
2022-11-08T05:34:59.591Z,5.93
2022-11-08T05:39:00.823Z,6.17
2022-11-08T05:43:02.167Z,6.30
2022-11-08T05:47:03.473Z,6.47
2022-11-08T05:51:05.072Z,6.64
2022-11-08T05:55:06.624Z,6.74
2022-11-08T05:59:08.031Z,6.81
2022-11-08T06:03:09.585Z,6.86
2022-11-08T06:07:10.956Z,6.96
2022-11-08T06:11:17.032Z,7.09
2022-11-08T06:15:18.398Z,7.22
2022-11-08T06:19:19.639Z,7.28
2022-11-08T06:23:21.532Z,7.29
2022-11-08T06:27:22.894Z,7.30
2022-11-08T06:31:24.423Z,7.39
2022-11-08T06:35:25.741Z,7.41
2022-11-08T06:39:27.220Z,7.38
2022-11-08T06:43:28.745Z,7.42
2022-11-08T06:47:30.286Z,7.47
2022-11-08T06:51:31.624Z,7.58
2022-11-08T06:55:33.732Z,7.60
2022-11-08T06:59:35.162Z,7.51
2022-11-08T07:03:37.247Z,7.43
2022-11-08T07:07:39.042Z,7.35
2022-11-08T07:11:40.638Z,7.26
2022-11-08T07:15:42.047Z,7.16
2022-11-08T07:19:44.639Z,7.13
2022-11-08T07:23:45.909Z,7.14
2022-11-08T07:27:47.291Z,7.26
2022-11-08T07:31:48.584Z,7.50
2022-11-08T07:35:49.891Z,7.76
2022-11-08T07:39:53.003Z,7.94
2022-11-08T07:43:56.643Z,8.03
2022-11-08T07:48:24.089Z,8.21
2022-11-08T07:52:39.335Z,8.41
2022-11-08T07:56:40.648Z,8.62
2022-11-08T08:00:42.746Z,8.91
2022-11-08T08:04:48.075Z,9.25
2022-11-08T08:08:51.451Z,9.65
2022-11-08T08:12:52.857Z,10.06
2022-11-08T08:16:54.536Z,10.44
2022-11-08T08:20:56.239Z,10.84
2022-11-08T08:25:02.758Z,11.27
2022-11-08T08:29:04.583Z,11.60
2022-11-08T08:37:29.140Z,12.15
2022-11-08T09:06:25.480Z,13.80
2022-11-08T09:50:28.822Z,15.04
2022-11-08T10:04:26.185Z,14.67
2022-11-08T10:08:46.420Z,14.69
2022-11-08T11:53:12.566Z,16.37
2022-11-08T12:36:02.920Z,16.39
2022-11-08T12:50:29.426Z,16.86
2022-11-08T13:01:23.842Z,16.94
2022-11-08T13:30:23.127Z,17.26
2022-11-08T19:40:05.529Z,14.71
2022-11-08T20:03:20.893Z,14.58
2022-11-08T20:07:24.065Z,14.53
2022-11-08T20:11:36.390Z,14.42
2022-11-08T20:15:38.061Z,14.30
2022-11-08T20:19:43.724Z,14.24
2022-11-08T20:23:46.431Z,14.17
2022-11-08T20:32:09.636Z,14.02
2022-11-08T20:36:34.844Z,13.98
2022-11-08T20:45:17.271Z,13.84
2022-11-08T20:49:33.837Z,13.80
2022-11-08T20:54:14.889Z,13.75
2022-11-08T21:02:39.186Z,13.73
2022-11-08T21:06:48.703Z,13.68
2022-11-08T21:15:27.260Z,13.59
2022-11-08T21:19:57.539Z,13.53
2022-11-08T21:24:25.027Z,13.47
2022-11-08T21:28:54.815Z,13.43
2022-11-08T21:33:06.522Z,13.41
2022-11-08T21:37:16.689Z,13.39
2022-11-08T21:41:18.941Z,13.37
2022-11-08T21:45:36.898Z,13.38
2022-11-08T22:17:23.146Z,13.57
2022-11-08T22:21:40.990Z,13.57
2022-11-08T22:25:43.999Z,13.52
2022-11-08T22:29:46.202Z,13.47
2022-11-08T22:33:48.184Z,13.44
2022-11-08T22:37:49.519Z,13.44
2022-11-08T22:41:52.559Z,13.44
2022-11-08T22:45:53.798Z,13.45
2022-11-08T22:49:55.099Z,13.44
2022-11-08T22:53:56.371Z,13.40
2022-11-08T22:57:57.653Z,13.38
2022-11-08T23:01:58.913Z,13.38
2022-11-08T23:06:00.287Z,13.34
2022-11-08T23:10:01.572Z,13.33
2022-11-08T23:14:21.815Z,13.30
2022-11-08T23:18:23.847Z,13.28
2022-11-08T23:22:44.451Z,13.25
2022-11-08T23:27:04.604Z,13.22
2022-11-08T23:31:35.342Z,13.22
2022-11-08T23:35:36.707Z,13.21
2022-11-08T23:40:01.392Z,13.20
2022-11-08T23:44:21.345Z,13.18
2022-11-08T23:48:22.770Z,13.14
2022-11-08T23:52:24.048Z,13.09
2022-11-08T23:56:26.403Z,13.08
